createdAt,value
2019-02-04T00:04:40.855Z,5.60
2019-02-04T00:09:46.667Z,5.20
2019-02-04T00:14:52.574Z,5.63
2019-02-04T00:19:58.413Z,4.77
2019-02-04T00:25:03.931Z,5.07
2019-02-04T00:30:09.823Z,5.97
2019-02-04T00:35:15.598Z,5.37
2019-02-04T00:40:21.111Z,6.17
2019-02-04T00:45:26.607Z,6.20
2019-02-04T00:50:32.379Z,5.83
2019-02-04T00:55:37.874Z,7.03
2019-02-04T01:00:47.447Z,5.97
2019-02-04T01:05:53.228Z,6.60
2019-02-04T01:10:59.406Z,6.40
2019-02-04T01:16:04.862Z,5.90
2019-02-04T01:21:10.316Z,6.60
2019-02-04T01:26:16.103Z,6.70
2019-02-04T01:31:21.583Z,6.47
2019-02-04T01:36:27.367Z,5.37
2019-02-04T01:41:33.246Z,5.90
2019-02-04T01:46:38.751Z,6.53
2019-02-04T01:51:44.238Z,6.50
2019-02-04T01:56:49.814Z,6.53
2019-02-04T02:01:55.283Z,6.43
2019-02-04T02:07:01.462Z,6.77
2019-02-04T02:12:06.938Z,6.53
2019-02-04T02:17:13.443Z,6.10
2019-02-04T02:22:19.255Z,7.57
2019-02-04T02:27:26.305Z,7.03
2019-02-04T02:32:31.748Z,6.63
2019-02-04T02:37:37.599Z,7.33
2019-02-04T02:42:43.034Z,7.37
2019-02-04T02:47:48.884Z,7.53
2019-02-04T02:52:54.707Z,7.27
2019-02-04T02:58:00.934Z,7.50
2019-02-04T03:03:06.418Z,7.13
2019-02-04T03:08:11.907Z,7.60
2019-02-04T03:13:17.678Z,7.57
2019-02-04T03:18:23.550Z,7.60
2019-02-04T03:23:29.071Z,6.90
2019-02-04T03:28:34.519Z,7.67
2019-02-04T03:33:40.037Z,8.93
2019-02-04T03:38:45.511Z,7.67
2019-02-04T03:43:51.517Z,8.53
2019-02-04T03:48:56.995Z,8.73
2019-02-04T03:54:02.773Z,8.53
2019-02-04T03:59:08.247Z,9.77
2019-02-04T04:04:14.165Z,10.47
2019-02-04T04:09:19.655Z,10.27
2019-02-04T04:14:25.102Z,12.00
2019-02-04T04:19:30.919Z,10.93
2019-02-04T04:24:36.730Z,11.80
2019-02-04T04:29:42.494Z,13.13
2019-02-04T04:34:48.307Z,14.67
2019-02-04T04:39:54.149Z,14.17
2019-02-04T04:44:59.990Z,11.80
2019-02-04T04:50:06.226Z,13.23
2019-02-04T04:55:14.136Z,14.83
2019-02-04T05:00:22.716Z,12.90
2019-02-04T05:05:28.248Z,13.37
2019-02-04T05:10:33.729Z,12.87
2019-02-04T05:15:39.534Z,12.90
2019-02-04T05:20:45.303Z,12.87
2019-02-04T05:25:51.134Z,13.43
2019-02-04T05:30:57.234Z,13.77
2019-02-04T05:36:03.042Z,12.77
2019-02-04T05:41:08.528Z,14.93
2019-02-04T05:46:13.978Z,11.93
2019-02-04T05:51:19.427Z,11.87
2019-02-04T05:56:25.538Z,12.17
2019-02-04T06:01:31.328Z,11.73
2019-02-04T06:06:36.780Z,11.47
2019-02-04T06:11:42.675Z,11.10
2019-02-04T06:16:48.181Z,12.27
2019-02-04T06:21:53.995Z,12.30
2019-02-04T06:26:59.439Z,11.83
2019-02-04T06:32:04.880Z,11.97
2019-02-04T06:37:10.694Z,11.07
2019-02-04T06:42:16.483Z,11.23
2019-02-04T06:47:21.986Z,11.23
2019-02-04T06:52:27.493Z,10.67
2019-02-04T06:57:33.353Z,10.40
2019-02-04T07:02:39.163Z,12.33
2019-02-04T07:07:44.648Z,10.87
2019-02-04T07:12:50.510Z,11.50
2019-02-04T07:18:01.559Z,10.77
2019-02-04T07:23:01.786Z,12.60
2019-02-04T07:28:07.225Z,12.37
2019-02-04T07:33:13.031Z,12.07
2019-02-04T07:38:18.491Z,12.57
2019-02-04T07:43:23.925Z,12.07
2019-02-04T07:48:29.726Z,11.03
2019-02-04T07:53:35.874Z,12.30
2019-02-04T07:58:41.341Z,11.83
2019-02-04T08:03:47.280Z,12.90
2019-02-04T08:08:53.574Z,13.63
2019-02-04T08:13:59.402Z,14.10
2019-02-04T08:19:04.893Z,13.77
2019-02-04T08:24:10.354Z,13.30
2019-02-04T08:29:16.529Z,13.97
2019-02-04T08:34:22.336Z,13.03
2019-02-04T08:39:28.192Z,11.97
2019-02-04T08:44:33.719Z,11.57
2019-02-04T08:49:39.162Z,10.60
2019-02-04T08:54:44.709Z,11.13
2019-02-04T08:59:50.286Z,11.23
2019-02-04T09:04:56.115Z,11.07
2019-02-04T09:10:02.019Z,12.03
2019-02-04T09:15:10.394Z,11.50
2019-02-04T09:20:17.585Z,11.93
2019-02-04T09:25:23.652Z,11.17
2019-02-04T09:30:30.091Z,11.47
2019-02-04T09:35:36.267Z,12.97
2019-02-04T09:40:44.280Z,11.10
2019-02-04T09:45:49.761Z,12.77
2019-02-04T09:50:59.927Z,13.10
2019-02-04T09:56:05.867Z,12.00
2019-02-04T10:01:11.711Z,13.87
2019-02-04T10:06:17.568Z,11.83
2019-02-04T10:11:23.098Z,14.30
2019-02-04T10:16:29.202Z,12.60
2019-02-04T10:21:35.138Z,11.60
2019-02-04T10:26:40.801Z,12.80
2019-02-04T10:31:46.699Z,11.33
2019-02-04T10:36:52.191Z,10.47
2019-02-04T10:41:58.028Z,10.23
2019-02-04T10:47:04.210Z,9.27
2019-02-04T10:52:10.372Z,9.53
2019-02-04T10:57:16.206Z,8.60
2019-02-04T11:02:22.082Z,9.63
2019-02-04T11:07:27.610Z,8.47
2019-02-04T11:12:33.449Z,7.63
2019-02-04T11:17:39.314Z,7.83
2019-02-04T11:22:45.492Z,5.60
2019-02-04T11:27:51.359Z,5.33
2019-02-04T11:32:57.064Z,4.87
2019-02-04T11:38:03.467Z,4.93
2019-02-04T11:43:09.093Z,5.00
2019-02-04T11:48:14.737Z,4.53
2019-02-04T11:53:32.007Z,4.93
2019-02-04T11:58:26.083Z,4.37
2019-02-04T12:03:31.705Z,4.43
2019-02-04T12:08:37.623Z,4.67
2019-02-04T12:13:43.244Z,4.20
2019-02-04T12:18:49.167Z,4.27
2019-02-04T12:23:54.767Z,3.73
2019-02-04T12:29:00.236Z,3.17
2019-02-04T12:34:05.771Z,3.37
2019-02-04T12:39:20.151Z,3.10
2019-02-04T12:44:26.440Z,2.73
2019-02-04T12:49:31.894Z,2.97
2019-02-04T12:54:37.600Z,2.50
2019-02-04T12:59:45.272Z,2.27
2019-02-04T13:04:50.370Z,2.03
2019-02-04T13:09:56.247Z,2.50
2019-02-04T13:15:01.721Z,2.67
2019-02-04T13:20:10.029Z,2.37
2019-02-04T13:25:19.756Z,2.67
2019-02-04T13:30:26.063Z,2.20
2019-02-04T13:35:38.627Z,2.73
2019-02-04T13:40:45.197Z,2.77
2019-02-04T13:45:51.048Z,2.67
2019-02-04T13:50:57.203Z,2.43
2019-02-04T13:56:03.776Z,2.87
2019-02-04T14:01:09.652Z,2.80
2019-02-04T14:06:15.111Z,3.17
2019-02-04T14:11:21.643Z,3.50
2019-02-04T14:16:27.130Z,3.20
2019-02-04T14:21:32.981Z,3.00
2019-02-04T14:26:39.130Z,2.67
2019-02-04T14:31:44.612Z,2.60
2019-02-04T14:36:50.712Z,2.43
2019-02-04T14:41:56.440Z,2.90
2019-02-04T14:47:16.675Z,3.00
2019-02-04T14:54:12.864Z,2.33
2019-02-04T14:59:30.513Z,3.00
2019-02-04T15:04:58.050Z,2.77
2019-02-04T15:10:19.745Z,3.20
2019-02-04T15:15:59.442Z,4.07
2019-02-04T15:21:37.396Z,4.10
2019-02-04T15:26:59.861Z,4.00
2019-02-04T15:32:44.989Z,4.30
2019-02-04T15:38:21.215Z,5.10
2019-02-04T15:44:02.895Z,7.93
2019-02-04T15:51:06.435Z,6.80
2019-02-04T15:56:12.647Z,6.30
2019-02-04T16:01:18.147Z,7.67
2019-02-04T16:06:23.597Z,6.90
2019-02-04T16:11:29.866Z,7.23
2019-02-04T16:16:35.330Z,7.00
2019-02-04T16:21:41.490Z,7.57
2019-02-04T16:26:47.393Z,8.47
2019-02-04T16:31:53.258Z,10.73
2019-02-04T16:36:59.107Z,12.27
2019-02-04T16:42:04.586Z,11.53
2019-02-04T16:47:10.047Z,9.07
2019-02-04T16:52:15.862Z,10.37
2019-02-04T16:57:21.371Z,9.33
2019-02-04T17:02:27.863Z,8.50
2019-02-04T17:07:33.462Z,10.03
2019-02-04T17:12:38.975Z,9.73
2019-02-04T17:17:44.796Z,9.23
2019-02-04T17:22:50.518Z,9.33
2019-02-04T17:27:56.066Z,10.20
2019-02-04T17:33:01.855Z,9.20
2019-02-04T17:38:07.419Z,9.40
2019-02-04T17:43:13.207Z,8.97
2019-02-04T17:48:19.109Z,10.13
2019-02-04T17:53:33.939Z,11.27
2019-02-04T17:58:31.454Z,14.20
2019-02-04T18:03:36.872Z,15.93
2019-02-04T18:08:42.555Z,14.70
2019-02-04T18:13:48.460Z,13.33
2019-02-04T18:18:54.031Z,10.60
2019-02-04T18:23:59.486Z,10.73
2019-02-04T18:29:05.058Z,9.50
2019-02-04T18:34:10.846Z,9.87
2019-02-04T18:39:16.319Z,8.97
2019-02-04T18:44:21.819Z,9.17
2019-02-04T18:49:27.478Z,10.30
2019-02-04T18:54:33.019Z,9.73
2019-02-04T18:59:38.852Z,9.53
2019-02-04T19:04:44.788Z,11.13
2019-02-04T19:09:50.373Z,10.43
2019-02-04T19:14:56.028Z,10.07
2019-02-04T19:20:01.599Z,10.47
2019-02-04T19:25:09.311Z,9.57
2019-02-04T19:30:24.310Z,10.03
2019-02-04T19:35:30.171Z,9.57
2019-02-04T19:40:35.687Z,8.87
2019-02-04T19:45:41.620Z,10.07
2019-02-04T19:50:47.795Z,10.17
2019-02-04T19:55:53.684Z,9.30
2019-02-04T20:00:59.513Z,10.03
2019-02-04T20:06:05.680Z,12.10
2019-02-04T20:11:11.518Z,9.20
2019-02-04T20:16:17.418Z,10.37
2019-02-04T20:21:23.286Z,9.87
2019-02-04T20:26:28.804Z,8.73
2019-02-04T20:31:34.280Z,9.83
2019-02-04T20:36:40.082Z,8.97
2019-02-04T20:41:45.875Z,8.90
2019-02-04T20:46:52.103Z,9.60
2019-02-04T20:51:57.582Z,9.40
2019-02-04T20:57:03.098Z,8.90
2019-02-04T21:02:08.982Z,8.83
2019-02-04T21:07:14.844Z,8.87
2019-02-04T21:12:21.111Z,8.50
2019-02-04T21:17:26.558Z,8.60
2019-02-04T21:22:32.395Z,8.87
2019-02-04T21:27:38.375Z,7.90
2019-02-04T21:32:44.551Z,8.40
2019-02-04T21:37:50.415Z,8.23
2019-02-04T21:42:55.938Z,7.77
2019-02-04T21:48:01.864Z,7.00
2019-02-04T21:53:07.846Z,7.40
2019-02-04T21:58:13.715Z,6.97
2019-02-04T22:03:19.550Z,7.40
2019-02-04T22:08:25.747Z,6.97
2019-02-04T22:13:31.323Z,6.60
2019-02-04T22:18:36.831Z,6.57
2019-02-04T22:23:42.681Z,6.43
2019-02-04T22:28:48.155Z,6.33
2019-02-04T22:33:53.990Z,7.07
2019-02-04T22:38:59.818Z,6.57
2019-02-04T22:44:05.443Z,6.27
2019-02-04T22:49:11.339Z,5.63
2019-02-04T22:54:16.970Z,5.63
2019-02-04T22:59:22.830Z,5.50
2019-02-04T23:04:28.306Z,5.70
2019-02-04T23:09:34.214Z,6.27
2019-02-04T23:14:39.751Z,6.00
2019-02-04T23:19:45.211Z,6.00
2019-02-04T23:24:50.715Z,6.03
2019-02-04T23:29:56.795Z,5.20
2019-02-04T23:35:02.255Z,5.57
2019-02-04T23:40:07.932Z,5.63
2019-02-04T23:45:13.412Z,5.27
2019-02-04T23:50:19.043Z,5.47
2019-02-04T23:55:24.851Z,5.50
